Arbuckle, California
Current Conditions -  °F | °C
As of 5:53 PM on Friday 28 Nov 2014 (Local Time) from KSMF Reporting Station
Broken Clouds Broken Clouds  
Wind Chill: 56°   Ceiling: 9500
Heat Index: 56°   Visibility: 10mi
Dew Point: 48°   Wind: 5mph
Humidity: 75%   Direction: 120°ESE
Pressure: 29.84"   Gusts: NA
Location:  39.02°N, 122.06°W
Report Text: KSMF 290153Z 12004KT 10SM BKN095 13/09 A2984 RMK AO2 SLP104 T01330089
Loading
Personal Weather Stations






























Interactive Weather Map New forecast layout! Learn more

10-Day Weather Forecast

Advertisements
Track Severe Weather on mobile